createdAt,value
2018-02-24T00:01:48.487Z,16.87
2018-02-24T00:04:16.790Z,39.58
2018-02-24T00:06:44.316Z,24.30
2018-02-24T00:09:12.590Z,35.17
2018-02-24T00:11:40.112Z,23.10
2018-02-24T00:14:07.612Z,21.05
2018-02-24T00:16:36.165Z,20.15
2018-02-24T00:19:03.708Z,30.65
2018-02-24T00:21:31.238Z,19.92
2018-02-24T00:23:58.744Z,24.67
2018-02-24T00:26:26.315Z,15.75
2018-02-24T00:28:54.080Z,33.60
2018-02-24T00:31:22.371Z,23.65
2018-02-24T00:33:50.635Z,22.35
2018-02-24T00:36:18.122Z,20.92
2018-02-24T00:38:45.625Z,16.25
2018-02-24T00:41:13.128Z,21.00
2018-02-24T00:43:40.599Z,14.65
2018-02-24T00:46:08.143Z,25.05
2018-02-24T00:48:36.709Z,16.20
2018-02-24T00:51:04.189Z,22.13
2018-02-24T00:53:31.676Z,27.55
2018-02-24T00:55:59.211Z,28.40
2018-02-24T00:58:26.762Z,21.37
2018-02-24T01:00:55.012Z,21.17
2018-02-24T01:03:22.518Z,18.37
2018-02-24T01:05:50.033Z,20.10
2018-02-24T01:08:17.507Z,21.90
2018-02-24T01:10:45.052Z,25.88
2018-02-24T01:13:13.320Z,21.87
2018-02-24T01:15:40.801Z,17.80
2018-02-24T01:18:09.126Z,17.62
2018-02-24T01:20:36.656Z,32.10
2018-02-24T01:23:04.199Z,14.30
2018-02-24T01:25:31.670Z,16.98
2018-02-24T01:27:59.180Z,22.87
2018-02-24T01:30:27.063Z,16.83
2018-02-24T01:32:54.588Z,12.95
2018-02-24T01:35:22.085Z,23.12
2018-02-24T01:37:50.356Z,17.30
2018-02-24T01:40:18.627Z,17.67
2018-02-24T01:42:46.293Z,24.70
2018-02-24T01:45:13.885Z,28.75
2018-02-24T01:47:41.840Z,25.50
2018-02-24T01:50:09.398Z,22.20
2018-02-24T01:52:36.922Z,12.82
2018-02-24T01:55:04.525Z,34.97
2018-02-24T01:57:32.061Z,19.02
2018-02-24T02:00:00.568Z,20.88
2018-02-24T02:02:28.102Z,17.55
2018-02-24T02:04:56.435Z,35.28
2018-02-24T02:07:25.051Z,28.25
2018-02-24T02:09:52.540Z,28.52
2018-02-24T02:12:20.097Z,28.30
2018-02-24T02:14:47.628Z,22.40
2018-02-24T02:17:15.144Z,30.15
2018-02-24T02:19:42.664Z,40.75
2018-02-24T02:22:10.179Z,23.98
2018-02-24T02:24:38.091Z,21.85
2018-02-24T02:27:05.833Z,32.50
2018-02-24T02:29:33.398Z,27.05
2018-02-24T02:32:01.125Z,33.88
2018-02-24T02:34:28.829Z,29.92
2018-02-24T02:36:57.132Z,25.45
2018-02-24T02:39:24.658Z,38.47
2018-02-24T02:41:53.034Z,29.87
2018-02-24T02:44:22.149Z,20.27
2018-02-24T02:46:49.650Z,24.83
2018-02-24T02:49:17.517Z,29.60
2018-02-24T02:51:45.008Z,29.33
2018-02-24T02:54:12.489Z,22.60
2018-02-24T02:56:40.828Z,18.27
2018-02-24T02:59:08.324Z,24.00
2018-02-24T03:01:36.053Z,25.30
2018-02-24T03:04:03.595Z,19.98
2018-02-24T03:06:31.139Z,26.90
2018-02-24T03:08:58.680Z,27.65
2018-02-24T03:11:26.190Z,12.52
2018-02-24T03:13:53.763Z,23.60
2018-02-24T03:16:22.037Z,27.02
2018-02-24T03:18:49.982Z,30.42
2018-02-24T03:21:17.487Z,24.75
2018-02-24T03:23:44.975Z,22.48
2018-02-24T03:26:12.507Z,27.92
2018-02-24T03:28:40.013Z,27.60
2018-02-24T03:31:07.497Z,20.65
2018-02-24T03:33:35.051Z,25.40
2018-02-24T03:36:02.589Z,27.27
2018-02-24T03:38:30.129Z,31.17
2018-02-24T03:40:57.634Z,27.27
2018-02-24T03:43:25.162Z,17.87
2018-02-24T03:48:54.892Z,19.08
2018-02-24T03:51:22.372Z,15.02
2018-02-24T03:53:49.829Z,25.50
2018-02-24T03:56:17.352Z,21.95
2018-02-24T03:59:03.915Z,22.75
2018-02-24T04:01:31.431Z,19.40
2018-02-24T04:04:19.453Z,30.73
2018-02-24T04:06:46.978Z,23.42
2018-02-24T04:09:15.313Z,30.73
2018-02-24T04:11:42.867Z,12.48
2018-02-24T04:14:11.163Z,17.62
2018-02-24T04:16:38.674Z,26.87
2018-02-24T04:19:06.176Z,23.87
2018-02-24T04:21:33.714Z,14.13
2018-02-24T04:24:01.305Z,21.75
2018-02-24T04:26:32.836Z,25.00
2018-02-24T04:29:00.336Z,24.60
2018-02-24T04:31:27.868Z,27.58
2018-02-24T04:33:55.367Z,20.55
2018-02-24T04:36:22.896Z,23.85
2018-02-24T04:38:50.408Z,25.33
2018-02-24T04:41:18.692Z,24.00
2018-02-24T04:43:46.221Z,24.15
2018-02-24T04:46:13.742Z,27.73
2018-02-24T04:48:41.242Z,26.73
2018-02-24T04:51:08.731Z,29.35
2018-02-24T04:53:36.258Z,31.33
2018-02-24T04:56:03.769Z,20.40
2018-02-24T04:58:32.047Z,28.67
2018-02-24T05:00:59.594Z,17.52
2018-02-24T05:03:27.066Z,25.17
2018-02-24T05:05:54.551Z,30.27
2018-02-24T05:08:22.054Z,26.95
2018-02-24T05:10:49.531Z,24.40
2018-02-24T05:13:17.057Z,31.37
2018-02-24T05:15:44.543Z,19.20
2018-02-24T05:18:12.440Z,23.92
2018-02-24T05:20:40.356Z,26.23
2018-02-24T05:23:08.596Z,26.87
2018-02-24T05:25:36.117Z,24.90
2018-02-24T05:28:03.648Z,28.92
2018-02-24T05:30:31.178Z,23.75
2018-02-24T05:32:58.671Z,22.52
2018-02-24T05:35:26.170Z,23.98
2018-02-24T05:37:54.432Z,33.55
2018-02-24T05:40:22.693Z,18.95
2018-02-24T05:42:50.206Z,23.40
2018-02-24T05:45:17.703Z,23.08
2018-02-24T05:47:45.196Z,26.40
2018-02-24T05:50:12.715Z,27.50
2018-02-24T05:52:40.477Z,24.05
2018-02-24T05:55:07.977Z,18.90
2018-02-24T05:57:36.286Z,23.23
2018-02-24T06:00:03.799Z,25.30
2018-02-24T06:02:31.318Z,19.35
2018-02-24T06:04:59.562Z,25.60
2018-02-24T06:07:27.082Z,27.17
2018-02-24T06:09:54.611Z,23.20
2018-02-24T06:12:22.104Z,26.87
2018-02-24T06:14:49.602Z,23.50
2018-02-24T06:17:17.101Z,28.15
2018-02-24T06:19:44.620Z,27.25
2018-02-24T06:22:12.123Z,16.05
2018-02-24T06:24:39.603Z,9.93
2018-02-24T06:27:07.330Z,17.33
2018-02-24T06:29:34.808Z,21.40
2018-02-24T06:32:03.901Z,21.33
2018-02-24T06:34:33.206Z,16.77
2018-02-24T06:37:00.959Z,29.52
2018-02-24T06:39:28.691Z,29.85
2018-02-24T06:41:56.512Z,20.60
2018-02-24T06:44:24.832Z,19.75
2018-02-24T06:46:52.538Z,27.58
2018-02-24T06:49:21.133Z,31.90
2018-02-24T06:51:48.684Z,31.55
2018-02-24T06:54:16.951Z,25.83
2018-02-24T06:56:44.447Z,24.50
2018-02-24T06:59:12.169Z,26.45
2018-02-24T07:01:39.733Z,28.67
2018-02-24T07:04:07.274Z,15.48
2018-02-24T07:06:34.789Z,27.05
2018-02-24T07:09:02.315Z,27.02
2018-02-24T07:11:29.856Z,13.75
2018-02-24T07:13:57.346Z,22.62
2018-02-24T07:16:24.939Z,27.92
2018-02-24T07:18:52.448Z,24.48
2018-02-24T07:21:20.011Z,21.75
2018-02-24T07:23:48.356Z,24.52
2018-02-24T07:26:15.885Z,25.27
2018-02-24T07:28:44.207Z,25.23
2018-02-24T07:31:12.588Z,22.10
2018-02-24T07:33:45.537Z,18.12
2018-02-24T07:36:20.947Z,23.55
2018-02-24T07:38:53.689Z,12.32
2018-02-24T07:41:24.439Z,21.30
2018-02-24T07:43:52.935Z,19.73
2018-02-24T07:46:20.568Z,19.08
2018-02-24T07:48:48.059Z,19.02
2018-02-24T07:51:15.599Z,23.27
2018-02-24T07:53:44.042Z,28.95
2018-02-24T07:56:11.553Z,18.25
2018-02-24T07:58:39.086Z,13.13
2018-02-24T08:01:07.229Z,18.00
2018-02-24T08:03:35.393Z,23.58
2018-02-24T08:06:03.019Z,16.77
2018-02-24T08:08:30.548Z,19.83
2018-02-24T08:10:58.045Z,23.87
2018-02-24T08:13:25.563Z,15.75
2018-02-24T08:15:53.083Z,15.13
2018-02-24T08:18:21.184Z,19.73
2018-02-24T08:20:48.704Z,22.92
2018-02-24T08:23:16.345Z,19.73
2018-02-24T08:25:44.606Z,19.12
2018-02-24T08:28:12.874Z,10.27
2018-02-24T08:30:40.415Z,13.73
2018-02-24T08:33:07.911Z,27.17
2018-02-24T08:35:35.676Z,14.82
2018-02-24T08:38:03.164Z,17.83
2018-02-24T08:40:31.068Z,15.65
2018-02-24T08:42:58.827Z,22.35
2018-02-24T08:45:26.560Z,15.68
2018-02-24T08:47:54.080Z,16.67
2018-02-24T08:50:21.625Z,20.52
2018-02-24T08:52:49.150Z,12.85
2018-02-24T08:55:16.615Z,23.10
2018-02-24T08:57:44.376Z,16.57
2018-02-24T09:00:11.859Z,11.20
2018-02-24T09:02:43.703Z,21.93
2018-02-24T09:05:11.211Z,22.47
2018-02-24T09:07:38.967Z,14.77
2018-02-24T09:10:07.277Z,13.60
2018-02-24T09:12:34.782Z,10.63
2018-02-24T09:15:02.265Z,16.60
2018-02-24T09:17:29.785Z,13.83
2018-02-24T09:19:57.278Z,18.93
2018-02-24T09:22:24.815Z,10.70
2018-02-24T09:24:53.091Z,16.13
2018-02-24T09:27:20.730Z,11.03
2018-02-24T09:29:48.235Z,19.27
2018-02-24T09:32:15.751Z,13.47
2018-02-24T09:34:43.296Z,13.77
2018-02-24T09:37:10.805Z,10.60
2018-02-24T09:39:38.541Z,14.43
2018-02-24T09:42:06.867Z,13.90
2018-02-24T09:44:34.555Z,11.63
2018-02-24T09:47:02.112Z,15.00
2018-02-24T09:49:29.612Z,10.73
2018-02-24T09:51:57.868Z,11.00
2018-02-24T09:54:25.381Z,10.93
2018-02-24T09:56:53.102Z,13.10
2018-02-24T09:59:20.670Z,11.13
2018-02-24T10:01:48.935Z,15.60
2018-02-24T10:04:16.467Z,13.93
2018-02-24T10:06:44.142Z,11.00
2018-02-24T10:09:11.923Z,11.60
2018-02-24T10:11:39.452Z,12.73
2018-02-24T10:14:06.966Z,10.67
2018-02-24T10:16:34.772Z,11.20
2018-02-24T10:19:03.078Z,13.27
2018-02-24T10:21:30.572Z,13.00
2018-02-24T10:23:58.075Z,13.17
2018-02-24T10:26:25.578Z,15.10
2018-02-24T10:28:53.083Z,14.57
2018-02-24T10:31:20.573Z,13.93
2018-02-24T10:33:48.789Z,8.40
2018-02-24T10:36:16.277Z,16.93
2018-02-24T10:38:43.891Z,11.93
2018-02-24T10:41:11.761Z,9.30
2018-02-24T10:43:39.292Z,11.63
2018-02-24T10:46:06.837Z,10.13
2018-02-24T10:48:34.580Z,9.27
2018-02-24T10:51:02.066Z,14.27
2018-02-24T10:53:31.217Z,14.23
2018-02-24T10:55:58.728Z,10.40
2018-02-24T10:58:26.624Z,7.70
2018-02-24T11:00:55.115Z,10.83
2018-02-24T11:03:22.826Z,12.77
2018-02-24T11:05:50.443Z,13.97
2018-02-24T11:08:18.926Z,11.10
2018-02-24T11:10:46.618Z,9.20
2018-02-24T11:13:14.198Z,12.40
2018-02-24T11:15:41.725Z,6.30
2018-02-24T11:18:10.063Z,10.60
2018-02-24T11:20:37.670Z,14.10
2018-02-24T11:23:05.219Z,9.17
2018-02-24T11:25:32.828Z,9.23
2018-02-24T11:28:01.090Z,8.80
2018-02-24T11:30:28.638Z,9.70
2018-02-24T11:32:56.104Z,13.00
2018-02-24T11:35:23.579Z,11.00
2018-02-24T11:37:51.831Z,11.43
2018-02-24T11:40:19.308Z,10.53
2018-02-24T11:42:47.591Z,7.17
2018-02-24T11:45:16.301Z,8.43
2018-02-24T11:47:44.139Z,9.77
2018-02-24T11:50:11.770Z,7.67
2018-02-24T11:52:39.314Z,4.70
2018-02-24T11:55:06.931Z,10.87
2018-02-24T11:57:34.468Z,11.00
2018-02-24T12:00:03.636Z,17.17
2018-02-24T12:02:31.141Z,9.20
2018-02-24T12:04:58.637Z,9.17
2018-02-24T12:07:26.129Z,10.30
2018-02-24T12:09:53.669Z,9.47
2018-02-24T12:12:22.002Z,6.07
2018-02-24T12:14:52.364Z,6.03
2018-02-24T12:17:22.377Z,9.83
2018-02-24T12:19:49.885Z,5.50
2018-02-24T12:22:23.699Z,9.73
2018-02-24T12:24:51.220Z,5.60
2018-02-24T12:27:18.886Z,8.67
2018-02-24T12:29:47.513Z,8.37
2018-02-24T12:32:15.987Z,14.97
2018-02-24T12:34:44.932Z,9.60
2018-02-24T12:37:13.219Z,10.57
2018-02-24T12:39:40.810Z,12.97
2018-02-24T12:42:09.148Z,13.90
2018-02-24T12:44:36.653Z,9.03
2018-02-24T12:47:04.132Z,8.33
2018-02-24T12:49:32.953Z,8.67
2018-02-24T12:52:04.004Z,11.33
2018-02-24T13:00:19.380Z,10.03
2018-02-24T13:02:46.884Z,5.20
2018-02-24T13:05:14.503Z,13.40
2018-02-24T13:07:42.069Z,7.17
2018-02-24T13:10:09.652Z,5.13
2018-02-24T13:12:37.931Z,4.57
2018-02-24T13:15:05.430Z,5.27
2018-02-24T13:17:33.257Z,8.97
2018-02-24T13:20:01.562Z,4.57
2018-02-24T13:22:29.119Z,6.30
2018-02-24T13:24:57.369Z,6.23
2018-02-24T13:27:24.867Z,5.07
2018-02-24T13:29:52.422Z,4.50
2018-02-24T13:32:19.956Z,4.90
2018-02-24T13:34:48.191Z,10.10
2018-02-24T13:37:15.700Z,12.67
2018-02-24T13:39:43.231Z,10.80
2018-02-24T13:42:10.740Z,14.70
2018-02-24T13:44:38.244Z,10.93
2018-02-24T13:47:05.732Z,17.40
2018-02-24T13:49:34.244Z,11.53
2018-02-24T13:52:02.826Z,9.90
2018-02-24T13:54:30.649Z,9.93
2018-02-24T13:56:58.223Z,14.13
2018-02-24T13:59:25.764Z,10.70
2018-02-24T14:01:54.258Z,12.47
2018-02-24T14:04:22.612Z,5.90
2018-02-24T14:06:50.122Z,11.33
2018-02-24T14:09:17.679Z,13.83
2018-02-24T14:11:45.280Z,17.73
2018-02-24T14:14:12.843Z,17.47
2018-02-24T14:16:40.407Z,16.57
2018-02-24T14:19:10.168Z,11.53
2018-02-24T14:21:38.508Z,12.57
2018-02-24T14:24:06.808Z,11.47
2018-02-24T14:26:34.410Z,10.00
2018-02-24T14:29:01.946Z,11.73
2018-02-24T14:31:29.504Z,10.50
2018-02-24T14:33:58.125Z,9.97
2018-02-24T14:36:25.794Z,13.50
2018-02-24T14:38:53.478Z,11.30
2018-02-24T14:41:21.794Z,9.87
2018-02-24T14:43:49.354Z,15.67
2018-02-24T14:46:16.892Z,14.90
2018-02-24T14:48:44.745Z,13.10
2018-02-24T14:54:09.944Z,14.00
2018-02-24T14:56:38.232Z,12.40
2018-02-24T14:59:09.588Z,10.80
2018-02-24T15:01:37.188Z,12.23
2018-02-24T15:04:04.782Z,15.40
2018-02-24T15:06:32.294Z,17.37
2018-02-24T15:08:59.835Z,11.20
2018-02-24T15:11:31.096Z,9.70
2018-02-24T15:13:58.633Z,7.97
2018-02-24T15:16:26.555Z,9.50
2018-02-24T15:18:54.476Z,15.97
2018-02-24T15:21:21.990Z,11.87
2018-02-24T15:23:49.519Z,13.27
2018-02-24T15:26:17.699Z,11.30
2018-02-24T15:28:45.402Z,14.20
2018-02-24T15:31:18.675Z,10.83
2018-02-24T15:33:46.232Z,10.93
2018-02-24T15:36:14.012Z,12.73
2018-02-24T15:38:41.713Z,13.20
2018-02-24T15:41:09.246Z,13.70
2018-02-24T15:43:36.753Z,12.03
2018-02-24T15:46:07.095Z,16.23
2018-02-24T15:48:34.578Z,7.93
2018-02-24T15:51:02.180Z,12.60
2018-02-24T15:53:29.724Z,12.73
2018-02-24T15:56:02.286Z,13.60
2018-02-24T15:58:29.791Z,14.47
2018-02-24T16:00:58.189Z,9.33
2018-02-24T16:03:25.660Z,15.60
2018-02-24T16:05:53.162Z,11.63
2018-02-24T16:08:21.890Z,11.53
2018-02-24T16:10:49.423Z,9.83
2018-02-24T16:13:16.972Z,11.97
2018-02-24T16:15:44.507Z,10.93
2018-02-24T16:18:12.046Z,11.50
2018-02-24T16:20:39.576Z,13.47
2018-02-24T16:23:07.175Z,10.23
2018-02-24T16:25:34.663Z,13.50
2018-02-24T16:28:02.160Z,12.70
2018-02-24T16:30:35.714Z,9.37
2018-02-24T16:33:03.980Z,8.13
2018-02-24T16:35:31.476Z,17.40
2018-02-24T16:37:58.982Z,11.93
2018-02-24T16:40:27.262Z,13.87
2018-02-24T16:42:54.754Z,8.77
2018-02-24T16:45:22.252Z,12.40
2018-02-24T16:47:49.759Z,15.53
2018-02-24T16:50:18.049Z,6.57
2018-02-24T16:52:45.524Z,13.57
2018-02-24T16:55:13.106Z,11.03
2018-02-24T16:57:40.608Z,12.10
2018-02-24T17:00:08.090Z,5.67
2018-02-24T17:02:36.046Z,15.30
2018-02-24T17:05:04.940Z,14.57
2018-02-24T17:07:33.316Z,10.40
2018-02-24T17:10:01.599Z,8.00
2018-02-24T17:12:29.598Z,10.77
2018-02-24T17:14:57.175Z,15.20
2018-02-24T17:17:24.779Z,13.33
2018-02-24T17:19:52.827Z,10.60
2018-02-24T17:22:25.574Z,6.23
2018-02-24T17:24:53.923Z,8.25
2018-02-24T17:27:28.387Z,15.13
2018-02-24T17:29:58.111Z,11.27
2018-02-24T17:32:26.191Z,10.70
2018-02-24T17:35:21.148Z,7.13
2018-02-24T17:37:49.225Z,11.10
2018-02-24T17:40:16.851Z,12.05
2018-02-24T17:42:44.416Z,9.55
2018-02-24T17:45:12.379Z,28.77
2018-02-24T17:47:41.648Z,13.77
2018-02-24T17:50:10.011Z,11.13
2018-02-24T17:52:37.552Z,21.40
2018-02-24T17:58:01.862Z,11.88
2018-02-24T18:00:30.545Z,11.07
2018-02-24T18:03:03.790Z,13.75
2018-02-24T18:05:32.312Z,13.48
2018-02-24T18:07:59.908Z,15.75
2018-02-24T18:10:28.251Z,18.85
2018-02-24T18:12:55.868Z,11.07
2018-02-24T18:15:23.575Z,4.78
2018-02-24T18:17:51.259Z,33.75
2018-02-24T18:20:18.896Z,11.48
2018-02-24T18:22:46.579Z,8.88
2018-02-24T18:25:14.641Z,9.45
2018-02-24T18:27:42.153Z,6.80
2018-02-24T18:30:25.944Z,10.48
2018-02-24T18:32:53.461Z,8.85
2018-02-24T18:35:21.811Z,12.45
2018-02-24T18:37:50.149Z,7.05
2018-02-24T18:40:17.686Z,7.32
2018-02-24T18:42:45.180Z,10.75
2018-02-24T18:45:12.820Z,10.27
2018-02-24T18:47:40.502Z,13.02
2018-02-24T18:50:09.548Z,4.82
2018-02-24T18:52:37.116Z,12.98
2018-02-24T18:55:04.645Z,8.18
2018-02-24T18:57:32.210Z,12.20
2018-02-24T18:59:59.955Z,7.15
2018-02-24T19:02:28.247Z,3.95
2018-02-24T19:04:55.813Z,11.35
2018-02-24T19:07:23.404Z,7.65
2018-02-24T19:09:51.059Z,9.00
2018-02-24T19:12:18.631Z,11.18
2018-02-24T19:14:46.182Z,9.63
2018-02-24T19:17:13.776Z,5.12
2018-02-24T19:19:41.343Z,9.32
2018-02-24T19:22:08.819Z,5.95
2018-02-24T19:24:36.802Z,12.60
2018-02-24T19:27:04.734Z,7.60
2018-02-24T19:29:32.273Z,5.47
2018-02-24T19:31:59.772Z,6.53
2018-02-24T19:34:27.313Z,5.65
2018-02-24T19:36:54.839Z,8.50
2018-02-24T19:39:22.340Z,6.65
2018-02-24T19:41:50.640Z,6.40
2018-02-24T19:44:18.291Z,5.68
2018-02-24T19:46:46.654Z,11.38
2018-02-24T19:49:35.109Z,8.40
2018-02-24T19:52:02.725Z,6.60
2018-02-24T19:54:48.688Z,8.20
2018-02-24T20:00:14.599Z,3.05
2018-02-24T20:02:43.029Z,3.45
2018-02-24T20:05:10.626Z,3.45
2018-02-24T20:07:39.066Z,3.65
2018-02-24T20:10:06.633Z,9.48
2018-02-24T20:12:34.221Z,2.50
2018-02-24T20:15:02.878Z,2.92
2018-02-24T20:17:31.274Z,3.17
2018-02-24T20:19:58.897Z,3.05
2018-02-24T20:22:27.097Z,6.47
2018-02-24T20:24:55.879Z,3.50
2018-02-24T20:27:24.191Z,6.35
2018-02-24T20:29:51.715Z,3.15
2018-02-24T20:32:19.291Z,2.50
2018-02-24T20:34:47.055Z,3.80
2018-02-24T20:37:15.956Z,3.05
2018-02-24T20:39:43.513Z,3.58
2018-02-24T20:42:11.035Z,1.92
2018-02-24T20:44:38.602Z,9.48
2018-02-24T20:47:09.420Z,3.87
2018-02-24T20:49:37.016Z,2.80
2018-02-24T20:52:04.775Z,4.07
2018-02-24T20:54:32.336Z,3.37
2018-02-24T20:57:01.901Z,2.05
2018-02-24T20:59:29.561Z,3.25
2018-02-24T21:01:57.344Z,3.60
2018-02-24T21:04:25.167Z,2.00
2018-02-24T21:06:53.828Z,5.72
2018-02-24T21:09:23.354Z,2.12
2018-02-24T21:11:51.768Z,3.15
2018-02-24T21:14:20.040Z,1.83
2018-02-24T21:16:47.552Z,3.35
2018-02-24T21:19:15.280Z,4.32
2018-02-24T21:21:42.770Z,4.37
2018-02-24T21:24:10.298Z,2.80
2018-02-24T21:26:38.526Z,6.95
2018-02-24T21:29:06.022Z,4.30
2018-02-24T21:31:33.520Z,2.45
2018-02-24T21:34:01.766Z,1.77
2018-02-24T21:36:30.043Z,2.33
2018-02-24T21:38:58.434Z,2.83
2018-02-24T21:41:25.994Z,9.63
2018-02-24T21:43:53.558Z,2.10
2018-02-24T21:46:21.113Z,3.90
2018-02-24T21:48:49.440Z,3.55
2018-02-24T21:51:17.060Z,1.50
2018-02-24T21:53:44.640Z,3.50
2018-02-24T21:56:12.310Z,1.40
2018-02-24T21:58:39.822Z,3.97
2018-02-24T22:01:07.389Z,2.65
2018-02-24T22:03:35.280Z,3.53
2018-02-24T22:06:02.833Z,2.75
2018-02-24T22:08:30.360Z,4.70
2018-02-24T22:10:57.853Z,3.03
2018-02-24T22:13:25.767Z,5.87
2018-02-24T22:15:53.302Z,6.00
2018-02-24T22:18:20.868Z,4.90
2018-02-24T22:20:48.469Z,4.43
2018-02-24T22:23:16.757Z,2.10
2018-02-24T22:25:45.228Z,2.78
2018-02-24T22:28:12.790Z,2.37
2018-02-24T22:30:40.360Z,3.78
2018-02-24T22:33:07.937Z,3.70
2018-02-24T22:35:35.436Z,4.12
2018-02-24T22:38:03.345Z,3.37
2018-02-24T22:40:30.848Z,3.92
2018-02-24T22:42:59.032Z,4.85
2018-02-24T22:45:26.677Z,2.58
2018-02-24T22:47:59.882Z,2.10
2018-02-24T22:50:27.448Z,2.20
2018-02-24T22:52:54.994Z,1.52
2018-02-24T22:55:22.534Z,2.67
2018-02-24T22:57:50.099Z,3.17
2018-02-24T23:00:18.374Z,5.40
2018-02-24T23:02:46.831Z,5.68
2018-02-24T23:05:14.381Z,2.03
2018-02-24T23:07:42.685Z,6.10
2018-02-24T23:10:10.976Z,1.80
2018-02-24T23:12:39.521Z,2.70
2018-02-24T23:15:07.066Z,4.53
2018-02-24T23:17:34.581Z,3.40
2018-02-24T23:20:02.107Z,4.90
2018-02-24T23:22:29.612Z,4.05
2018-02-24T23:24:57.120Z,3.15
2018-02-24T23:27:24.652Z,2.22
2018-02-24T23:29:52.158Z,3.72
2018-02-24T23:32:19.682Z,2.22
2018-02-24T23:34:47.941Z,3.35
2018-02-24T23:37:15.854Z,2.80
2018-02-24T23:39:43.338Z,3.28
2018-02-24T23:42:11.605Z,5.82
2018-02-24T23:44:39.962Z,3.72
2018-02-24T23:47:07.424Z,1.65
2018-02-24T23:49:36.121Z,3.15
2018-02-24T23:52:04.999Z,3.12
2018-02-24T23:54:32.667Z,2.60
2018-02-24T23:57:00.980Z,3.72
2018-02-24T23:59:28.476Z,1.87
